Mullendorf, Luxembourg
Current Conditions -  °F | °C
As of 12:50 AM on Monday 26 Jan 2015 (Local Time) from ELLX Reporting Station
Light Snow Light Snow  
Wind Chill: 32°   Ceiling: 300
Heat Index: 32°   Visibility: 0.43mi
Dew Point: 32°   Wind: 3mph
Humidity: 100%   Direction: NA
Pressure: 30.33"   Gusts: NA
Location:  49.68°N, 6.13°E
Report Text: ELLX 252350Z VRB03KT 0700 R24/P1500N -SN FZFG SCT001 BKN003 00/00 Q1027 24690553 NOSIG
Loading
Personal Weather Stations






























Interactive Weather Map New forecast layout! Learn more

10-Day Weather Forecast

Advertisements
Track Severe Weather on mobile